Terminal Aerodrome Forecast
Issued by NWS Green Bay, WI

Home | Current Version | Previous Version | Text Only | Print | Product List | Glossary Off
Versions: 1 2 3 4 5 6 7 8 9 10 11 12 13 14 15 16 17 18 19 20 21 22

000
FTUS43 KGRB 281726
TAFGRB
TAF
KGRB 281726Z 2818/2918 04014G20KT P6SM VCSH SCT020 OVC035
      TEMPO 2818/2819 3SM SHRA BKN020
     FM282200 04016G21KT P6SM BKN040
     FM282300 03013KT P6SM SCT040
     FM291500 04015KT P6SM SCT250=

USA.gov is the U.S. government's official web portal to all federal, state and local government web resources and services.